Aérodrome :
LOGIN :

S'inscrire | Disclaimer

   EN    FR    IT 

 










Légende :    VFR   VFR Marginal   IFR   IFR Intensif   IFR Très Intensif
Visi : 
Plafond : 
>= 8 km
>= 3000ft
5 à 8 km
1000 à 3000 ft
1500m à 5 km
500 à 1000 ft
800 à 1500m
200 à 500 ft
< 800m
< 200 ft
Symboles :   Orages  Brouillard  Fortes neiges  Fortes précipitations  Vent > 20 kt
SIGMETs :   Divers  Orages  Givrage  Turbulence  Onde Orograph.  Cendres Volcan.







- Altitude de l'aérodrome : 146 ft
- Code IATA : RKE


EKRK - Roskilde Tune

DERNIER METAR :
  • 172050Z AUTO 31009KT 9999 BKN048/// 09/06 Q1012 RESHRA

METARs EXPIRÉS :
  • 172020Z AUTO 35014KT 7000 +SHRA OVC031/// 09/06 Q1011
  • 171950Z AUTO 30014KT 9999 -SHRA BKN044/// 09/06 Q1010
  • 171920Z AUTO 01005KT 290V060 9999 -SHRA BKN038/// BKN150/// 09/05 Q1010
  • 171850Z AUTO 32011KT 290V350 9999 BKN050/// BKN150/// 09/04 Q1009 RESHRA
  • 171820Z AUTO 32016KT 290V350 9999 RA SCT039/// BKN066/// 08/04 Q1009

TAF TAF EKRK
Valide du 17 à 21h jusqu'au 18 à 06h UTC


172020Z 1721/1806 32015KT 9999 SCT030
Pas de NOTAMs connus pour ce terrain.



MET'MAP, la Météo Aéronautique d'un coup d'oeil ! - Copyright ORBIFLY Décembre 2007 - Disclaimer

ORBIFLY MET'MAP TEAM :

Programmation & Développement : Alexandra Zaïnal
Conception & Développement : Baudouin d'Aumeries
Co-Programmation & Développement : Marc-Olivier Méhu
Soutien technique & logistique : Manuel Goepfert

Contact : metmap@orbifly.com




SOURCES & CREDITS :

   NOAA